createdAt,value
2022-12-22T00:02:00.107Z,4.50
2022-12-22T00:04:45.746Z,4.50
2022-12-22T00:07:31.247Z,4.40
2022-12-22T00:10:16.714Z,4.40
2022-12-22T00:13:02.234Z,4.40
2022-12-22T00:15:51.305Z,4.50
2022-12-22T00:18:36.562Z,4.40
2022-12-22T00:21:21.884Z,4.40
2022-12-22T00:24:07.076Z,4.50
2022-12-22T00:26:54.105Z,4.60
2022-12-22T00:29:40.176Z,4.60
2022-12-22T00:32:31.124Z,4.60
2022-12-22T00:35:16.826Z,4.50
2022-12-22T00:38:02.317Z,4.60
2022-12-22T00:40:48.218Z,4.60
2022-12-22T00:43:33.595Z,4.60
2022-12-22T00:46:21.358Z,4.60
2022-12-22T00:49:07.256Z,4.60
2022-12-22T00:51:53.163Z,4.60
2022-12-22T00:54:40.629Z,4.70
2022-12-22T00:57:34.493Z,4.80
2022-12-22T01:00:20.637Z,4.70
2022-12-22T01:03:06.115Z,4.80
2022-12-22T01:05:51.426Z,4.80
2022-12-22T01:08:36.684Z,4.80
2022-12-22T01:11:22.250Z,4.80
2022-12-22T01:14:07.590Z,4.80
2022-12-22T01:16:52.782Z,4.80
2022-12-22T01:19:38.116Z,4.80
2022-12-22T01:22:30.741Z,4.80
2022-12-22T01:25:15.918Z,4.70
2022-12-22T01:28:01.311Z,4.70
2022-12-22T01:30:46.652Z,4.60
2022-12-22T01:33:32.530Z,4.60
2022-12-22T01:36:17.789Z,4.60
2022-12-22T01:39:03.107Z,4.60
2022-12-22T01:41:48.599Z,4.50
2022-12-22T01:44:36.067Z,4.50
2022-12-22T01:47:46.671Z,4.50
2022-12-22T01:50:54.332Z,4.40
2022-12-22T01:53:43.862Z,4.40
2022-12-22T01:56:30.227Z,4.40
2022-12-22T01:59:18.683Z,4.40
2022-12-22T02:02:04.707Z,4.40
2022-12-22T02:04:55.988Z,4.40
2022-12-22T02:08:19.827Z,4.40
2022-12-22T02:11:52.681Z,4.50
2022-12-22T02:14:52.388Z,4.50
2022-12-22T02:17:50.242Z,4.60
2022-12-22T02:20:55.711Z,4.50
2022-12-22T02:24:18.705Z,4.50
2022-12-22T02:27:09.904Z,4.50
2022-12-22T02:30:09.456Z,4.60
2022-12-22T02:33:07.261Z,4.50
2022-12-22T02:36:31.766Z,4.50
2022-12-22T02:39:38.153Z,4.40
2022-12-22T02:42:50.833Z,4.40
2022-12-22T02:45:42.490Z,4.40
2022-12-22T02:48:34.443Z,4.40
2022-12-22T02:51:25.339Z,4.40
2022-12-22T02:54:13.689Z,4.40
2022-12-22T02:56:59.972Z,4.50
2022-12-22T02:59:47.612Z,4.50
2022-12-22T03:02:33.313Z,4.50
2022-12-22T03:05:18.876Z,4.60
2022-12-22T03:08:08.176Z,4.60
2022-12-22T03:10:54.590Z,4.60
2022-12-22T03:13:40.547Z,4.50
2022-12-22T03:16:25.929Z,4.50
2022-12-22T03:19:11.259Z,4.50
2022-12-22T03:21:56.585Z,4.50
2022-12-22T03:24:41.845Z,4.50
2022-12-22T03:27:08.592Z,4.60
2022-12-22T03:29:35.327Z,4.50
2022-12-22T03:32:02.186Z,4.60
2022-12-22T03:34:29.179Z,4.50
2022-12-22T03:36:55.907Z,4.60
2022-12-22T03:39:22.651Z,4.60
2022-12-22T03:42:08.268Z,4.60
2022-12-22T03:44:53.742Z,4.70
2022-12-22T03:47:20.462Z,4.60
2022-12-22T03:49:47.184Z,4.60
2022-12-22T03:52:13.969Z,4.60
2022-12-22T03:54:40.716Z,4.70
2022-12-22T03:57:07.475Z,4.70
2022-12-22T03:59:34.229Z,4.60
2022-12-22T04:02:01.098Z,4.60
2022-12-22T04:04:28.063Z,4.60
2022-12-22T04:06:55.505Z,4.60
2022-12-22T04:09:22.704Z,4.70
2022-12-22T04:12:07.856Z,4.70
2022-12-22T04:14:35.190Z,4.80
2022-12-22T04:17:03.667Z,4.80
2022-12-22T04:19:30.955Z,4.80
2022-12-22T04:21:57.826Z,4.80
2022-12-22T04:24:24.924Z,4.80
2022-12-22T04:26:52.308Z,4.80
2022-12-22T04:29:19.023Z,4.80
2022-12-22T04:31:45.850Z,4.80
2022-12-22T04:34:12.617Z,4.80
2022-12-22T04:36:39.404Z,4.80
2022-12-22T04:39:06.148Z,4.80
2022-12-22T04:41:32.891Z,4.90
2022-12-22T04:43:59.597Z,4.90
2022-12-22T04:46:26.400Z,4.90
2022-12-22T04:48:57.915Z,5.00
2022-12-22T04:51:27.107Z,5.10
2022-12-22T04:53:53.807Z,5.00
2022-12-22T04:56:20.549Z,5.00
2022-12-22T04:58:47.259Z,4.90
2022-12-22T05:01:16.251Z,5.00
2022-12-22T05:03:43.455Z,5.00
2022-12-22T05:06:11.171Z,5.00
2022-12-22T05:08:38.059Z,5.00
2022-12-22T05:11:05.309Z,5.10
2022-12-22T05:13:32.884Z,5.10
2022-12-22T05:16:11.735Z,5.10
2022-12-22T05:18:39.591Z,5.20
2022-12-22T05:21:09.630Z,5.10
2022-12-22T05:23:36.400Z,5.10
2022-12-22T05:26:03.487Z,5.10
2022-12-22T05:28:32.051Z,5.10
2022-12-22T05:31:04.603Z,5.10
2022-12-22T05:33:31.820Z,5.00
2022-12-22T05:35:58.671Z,5.10
2022-12-22T05:38:25.779Z,5.10
2022-12-22T05:40:54.634Z,5.10
2022-12-22T05:43:25.043Z,5.10
2022-12-22T05:45:53.105Z,5.20
2022-12-22T05:48:27.420Z,5.20
2022-12-22T05:50:56.403Z,5.20
2022-12-22T05:53:23.109Z,5.10
2022-12-22T05:55:49.868Z,5.20
2022-12-22T05:58:16.616Z,5.30
2022-12-22T06:00:43.325Z,5.30
2022-12-22T06:03:10.127Z,5.30
2022-12-22T06:05:37.095Z,5.40
2022-12-22T06:08:04.008Z,5.40
2022-12-22T06:10:30.746Z,5.30
2022-12-22T06:12:57.445Z,5.40
2022-12-22T06:15:24.218Z,5.30
2022-12-22T06:17:50.934Z,5.30
2022-12-22T06:20:17.746Z,5.10
2022-12-22T06:22:44.468Z,5.10
2022-12-22T06:25:17.529Z,5.10
2022-12-22T06:27:45.242Z,5.30
2022-12-22T06:30:12.265Z,5.30
2022-12-22T06:32:39.645Z,5.40
2022-12-22T06:35:07.960Z,5.40
2022-12-22T06:37:34.714Z,5.40
2022-12-22T06:40:01.533Z,5.40
2022-12-22T06:42:47.127Z,5.50
2022-12-22T06:45:13.915Z,5.50
2022-12-22T06:47:40.662Z,5.60
2022-12-22T06:50:08.210Z,5.50
2022-12-22T06:52:35.232Z,5.60
2022-12-22T06:55:04.746Z,5.60
2022-12-22T06:57:31.484Z,5.70
2022-12-22T06:59:58.240Z,5.70
2022-12-22T07:02:25.370Z,5.70
2022-12-22T07:04:52.409Z,5.70
2022-12-22T07:07:19.391Z,5.70
2022-12-22T07:09:46.218Z,5.90
2022-12-22T07:12:13.460Z,5.90
2022-12-22T07:14:40.801Z,5.90
2022-12-22T07:17:09.047Z,6.00
2022-12-22T07:19:35.826Z,6.00
2022-12-22T07:22:02.610Z,6.10
2022-12-22T07:24:29.684Z,6.10
2022-12-22T07:26:56.415Z,6.00
2022-12-22T07:29:23.729Z,6.10
2022-12-22T07:31:50.767Z,6.10
2022-12-22T07:34:17.578Z,6.10
2022-12-22T07:36:44.329Z,6.00
2022-12-22T07:39:12.581Z,6.00
2022-12-22T07:41:58.467Z,6.00
2022-12-22T07:44:25.264Z,5.90
2022-12-22T07:46:52.135Z,5.90
2022-12-22T07:49:37.452Z,5.90
2022-12-22T07:52:04.618Z,5.90
2022-12-22T07:54:35.235Z,6.00
2022-12-22T07:57:04.790Z,6.10
2022-12-22T07:59:31.768Z,6.10
2022-12-22T08:01:58.605Z,6.20
2022-12-22T08:04:25.548Z,6.20
2022-12-22T08:06:52.505Z,6.30
2022-12-22T08:09:21.628Z,6.30
2022-12-22T08:11:49.250Z,6.30
2022-12-22T08:14:16.064Z,6.30
2022-12-22T08:16:42.832Z,6.40
2022-12-22T08:19:09.733Z,6.50
2022-12-22T08:21:36.463Z,6.40
2022-12-22T08:24:03.254Z,6.40
2022-12-22T08:26:43.791Z,6.50
2022-12-22T08:29:32.241Z,6.60
2022-12-22T08:32:00.606Z,6.50
2022-12-22T08:34:27.460Z,6.60
2022-12-22T08:36:57.787Z,6.60
2022-12-22T08:39:27.083Z,6.60
2022-12-22T08:41:54.266Z,6.70
2022-12-22T08:44:24.069Z,6.80
2022-12-22T08:46:51.855Z,6.90
2022-12-22T08:49:18.879Z,7.00
2022-12-22T08:51:46.100Z,7.10
2022-12-22T08:54:13.343Z,7.30
2022-12-22T08:56:40.379Z,7.40
2022-12-22T08:59:08.035Z,7.40
2022-12-22T09:01:37.325Z,7.40
2022-12-22T09:04:05.181Z,7.40
2022-12-22T09:06:38.590Z,7.40
2022-12-22T09:09:11.305Z,7.40
2022-12-22T09:11:39.552Z,7.40
2022-12-22T09:14:07.107Z,7.40
2022-12-22T09:16:34.666Z,7.40
2022-12-22T09:19:01.957Z,7.40
2022-12-22T09:21:29.575Z,7.50
2022-12-22T09:23:57.262Z,7.40
2022-12-22T09:26:26.525Z,7.40
2022-12-22T09:28:53.709Z,7.40
2022-12-22T09:31:21.651Z,7.40
2022-12-22T09:33:48.948Z,7.40
2022-12-22T09:36:18.391Z,7.50
2022-12-22T09:38:45.181Z,7.50
2022-12-22T09:41:21.220Z,7.50
2022-12-22T09:43:48.308Z,7.60
2022-12-22T09:46:26.892Z,7.70
2022-12-22T09:48:54.667Z,7.80
2022-12-22T09:51:26.832Z,7.80
2022-12-22T09:53:59.044Z,7.90
2022-12-22T09:56:27.794Z,8.00
2022-12-22T09:58:54.824Z,8.00
2022-12-22T10:01:36.464Z,8.00
2022-12-22T10:04:22.223Z,8.00
2022-12-22T10:07:26.310Z,8.10
2022-12-22T10:09:53.084Z,8.30
2022-12-22T10:12:23.479Z,8.30
2022-12-22T10:14:53.440Z,8.40
2022-12-22T10:17:23.075Z,8.50
2022-12-22T10:19:53.279Z,8.50
2022-12-22T10:22:30.317Z,8.60
2022-12-22T10:25:00.428Z,8.70
2022-12-22T10:27:31.260Z,8.80
2022-12-22T10:30:18.584Z,8.90
2022-12-22T10:33:08.821Z,9.00
2022-12-22T10:35:57.165Z,9.10
2022-12-22T10:38:39.366Z,9.20
2022-12-22T10:41:12.162Z,9.20
2022-12-22T10:43:47.087Z,9.20
2022-12-22T10:46:14.583Z,9.20
2022-12-22T10:48:41.857Z,9.20
2022-12-22T10:51:11.410Z,9.30
2022-12-22T10:53:51.002Z,9.40
2022-12-22T10:56:22.515Z,9.30
2022-12-22T10:59:19.163Z,9.20
2022-12-22T11:01:46.389Z,9.00
2022-12-22T11:04:27.025Z,8.90
2022-12-22T11:06:55.623Z,8.80
2022-12-22T11:09:33.776Z,8.80
2022-12-22T11:12:24.499Z,8.80
2022-12-22T11:15:27.392Z,8.80
2022-12-22T11:18:31.918Z,8.80
2022-12-22T11:21:24.230Z,8.80
2022-12-22T11:23:58.658Z,8.80
2022-12-22T11:26:50.958Z,8.80
2022-12-22T11:29:37.103Z,8.80
2022-12-22T11:32:41.237Z,8.70
2022-12-22T11:35:33.681Z,8.60
2022-12-22T11:38:24.837Z,8.80
2022-12-22T11:41:03.425Z,8.80
2022-12-22T11:43:52.375Z,8.80
2022-12-22T11:46:54.391Z,8.80
2022-12-22T11:49:50.661Z,8.70
2022-12-22T11:52:33.672Z,8.60
2022-12-22T11:55:17.235Z,8.60
2022-12-22T11:58:27.961Z,8.50
2022-12-22T12:01:31.319Z,8.60
2022-12-22T12:04:10.232Z,8.70
2022-12-22T12:07:14.758Z,8.80
2022-12-22T12:10:03.663Z,8.80
2022-12-22T12:12:48.363Z,8.80
2022-12-22T12:15:24.994Z,8.70
2022-12-22T12:18:14.932Z,8.60
2022-12-22T12:21:22.966Z,8.70
2022-12-22T12:23:52.511Z,8.70
2022-12-22T12:26:32.764Z,8.80
2022-12-22T12:29:05.245Z,8.90
2022-12-22T12:31:38.664Z,9.00
2022-12-22T12:34:13.055Z,9.00
2022-12-22T12:36:50.829Z,9.00
2022-12-22T12:39:33.636Z,9.00
2022-12-22T12:42:24.745Z,9.00
2022-12-22T12:44:53.480Z,9.00
2022-12-22T12:47:32.266Z,9.10
2022-12-22T12:50:03.515Z,8.90
2022-12-22T12:52:53.510Z,9.00
2022-12-22T12:55:28.061Z,9.10
2022-12-22T12:58:00.863Z,9.00
2022-12-22T13:00:33.766Z,9.10
2022-12-22T13:04:01.188Z,9.10
2022-12-22T13:06:49.401Z,9.10
2022-12-22T13:12:48.333Z,8.80
2022-12-22T13:15:31.998Z,8.80
2022-12-22T13:17:59.890Z,8.60
2022-12-22T13:20:35.947Z,8.50
2022-12-22T13:23:10.450Z,8.40
2022-12-22T13:25:42.491Z,8.30
2022-12-22T13:28:21.045Z,8.30
2022-12-22T13:30:50.274Z,8.20
2022-12-22T13:33:20.898Z,8.10
2022-12-22T13:35:53.429Z,8.10
2022-12-22T13:38:30.147Z,8.10
2022-12-22T13:40:59.615Z,8.10
2022-12-22T13:43:29.101Z,8.10
2022-12-22T13:45:58.696Z,8.10
2022-12-22T13:48:34.871Z,8.10
2022-12-22T13:51:09.231Z,8.20
2022-12-22T13:56:38.131Z,8.30
2022-12-22T13:59:16.576Z,8.30
2022-12-22T14:02:01.559Z,8.20
2022-12-22T14:04:29.973Z,8.20
2022-12-22T14:06:56.735Z,8.10
2022-12-22T14:09:25.842Z,8.10
2022-12-22T14:12:01.847Z,8.10
2022-12-22T14:14:34.894Z,8.10
2022-12-22T14:17:02.695Z,8.00
2022-12-22T14:19:36.025Z,8.10
2022-12-22T14:22:09.199Z,8.00
2022-12-22T14:24:58.915Z,8.00
2022-12-22T14:27:47.055Z,8.00
2022-12-22T14:30:18.083Z,8.10
2022-12-22T14:32:54.428Z,8.10
2022-12-22T14:35:22.216Z,8.10
2022-12-22T14:37:54.732Z,8.10
2022-12-22T14:40:38.365Z,8.00
2022-12-22T14:43:16.707Z,8.00
2022-12-22T14:45:44.645Z,8.00
2022-12-22T14:48:27.041Z,8.10
2022-12-22T14:50:55.000Z,8.00
2022-12-22T14:53:36.089Z,8.10
2022-12-22T14:56:02.812Z,8.10
2022-12-22T14:58:33.192Z,8.20
2022-12-22T15:01:22.583Z,8.20
2022-12-22T15:04:15.844Z,8.20
2022-12-22T15:06:45.620Z,8.20
2022-12-22T15:09:15.498Z,8.10
2022-12-22T15:11:45.465Z,8.20
2022-12-22T15:14:15.565Z,8.10
2022-12-22T15:16:43.607Z,8.20
2022-12-22T15:19:17.620Z,8.20
2022-12-22T15:21:44.810Z,8.20
2022-12-22T15:24:13.172Z,8.20
2022-12-22T15:26:39.893Z,8.20
2022-12-22T15:29:06.835Z,8.30
2022-12-22T15:31:33.890Z,8.20
2022-12-22T15:34:03.253Z,8.30
2022-12-22T15:36:30.280Z,8.30
2022-12-22T15:38:57.039Z,8.30
2022-12-22T15:41:24.113Z,8.30
2022-12-22T15:43:57.144Z,8.30
2022-12-22T15:46:25.392Z,8.40
2022-12-22T15:48:52.705Z,8.30
2022-12-22T15:51:28.933Z,8.40
2022-12-22T15:54:03.505Z,8.30
2022-12-22T15:56:33.600Z,8.30
2022-12-22T15:59:02.049Z,8.40
2022-12-22T16:01:29.013Z,8.40
2022-12-22T16:03:55.944Z,8.60
2022-12-22T16:06:22.805Z,8.60
2022-12-22T16:08:53.257Z,8.50
2022-12-22T16:11:20.271Z,8.50
2022-12-22T16:13:49.067Z,8.50
2022-12-22T16:16:16.153Z,8.50
2022-12-22T16:18:43.039Z,8.50
2022-12-22T16:21:18.860Z,8.60
2022-12-22T16:23:48.096Z,8.60
2022-12-22T16:26:19.261Z,8.50
2022-12-22T16:28:46.692Z,8.50
2022-12-22T16:35:28.736Z,8.60
2022-12-22T16:37:58.887Z,8.50
2022-12-22T16:40:27.292Z,8.50
2022-12-22T16:45:47.872Z,8.40
2022-12-22T16:48:30.527Z,8.40
2022-12-22T16:50:57.298Z,8.40
2022-12-22T16:53:25.535Z,8.40
2022-12-22T16:55:52.374Z,8.40
2022-12-22T16:58:19.134Z,8.40
2022-12-22T17:00:45.969Z,8.40
2022-12-22T17:03:23.286Z,8.40
2022-12-22T17:05:56.083Z,8.40
2022-12-22T17:08:27.105Z,8.50
2022-12-22T17:10:56.600Z,8.50
2022-12-22T17:13:23.808Z,8.50
2022-12-22T17:15:50.959Z,8.40
2022-12-22T17:18:20.461Z,8.40
2022-12-22T17:20:50.129Z,8.40
2022-12-22T17:23:39.291Z,8.40
2022-12-22T17:26:10.210Z,8.40
2022-12-22T17:28:38.404Z,8.40
2022-12-22T17:31:05.635Z,8.40
2022-12-22T17:33:32.470Z,8.50
2022-12-22T17:36:00.543Z,8.50
2022-12-22T17:38:28.854Z,8.50
2022-12-22T17:40:57.438Z,8.50
2022-12-22T17:43:24.377Z,8.40
2022-12-22T17:45:52.263Z,8.40
2022-12-22T17:48:19.047Z,8.30
2022-12-22T17:50:50.250Z,8.30
2022-12-22T17:53:19.621Z,8.30
2022-12-22T17:56:07.912Z,8.30
2022-12-22T17:58:34.431Z,8.30
2022-12-22T18:01:01.461Z,8.40
2022-12-22T18:03:28.381Z,8.50
2022-12-22T18:05:55.449Z,8.40
2022-12-22T18:08:22.395Z,8.40
2022-12-22T18:10:49.772Z,8.40
2022-12-22T18:13:21.170Z,8.40
2022-12-22T18:15:48.412Z,8.30
2022-12-22T18:18:16.518Z,8.30
2022-12-22T18:20:44.502Z,8.20
2022-12-22T18:23:18.486Z,8.20
2022-12-22T18:25:45.315Z,8.20
2022-12-22T18:28:16.542Z,8.10
2022-12-22T18:30:43.501Z,8.20
2022-12-22T18:33:10.992Z,8.10
2022-12-22T18:35:38.830Z,8.10
2022-12-22T18:38:06.646Z,8.10
2022-12-22T18:40:38.886Z,8.10
2022-12-22T18:43:14.642Z,8.10
2022-12-22T18:45:41.425Z,8.20
2022-12-22T18:48:09.480Z,8.20
2022-12-22T18:50:36.740Z,8.10
2022-12-22T18:53:27.397Z,8.00
2022-12-22T18:55:55.066Z,7.90
2022-12-22T18:58:22.310Z,7.90
2022-12-22T19:00:50.259Z,7.90
2022-12-22T19:03:23.975Z,8.00
2022-12-22T19:05:51.459Z,8.00
2022-12-22T19:08:24.709Z,8.00
2022-12-22T19:10:54.970Z,8.10
2022-12-22T19:13:28.787Z,8.20
2022-12-22T19:15:56.296Z,8.30
2022-12-22T19:18:27.251Z,8.30
2022-12-22T19:20:55.380Z,8.30
2022-12-22T19:23:24.467Z,8.30
2022-12-22T19:25:54.338Z,8.20
2022-12-22T19:28:27.071Z,8.10
2022-12-22T19:30:55.532Z,8.00
2022-12-22T19:33:43.042Z,8.10
2022-12-22T19:36:22.326Z,8.00
2022-12-22T19:38:51.122Z,8.00
2022-12-22T19:41:33.465Z,8.00
2022-12-22T19:44:00.593Z,7.90
2022-12-22T19:46:32.512Z,7.90
2022-12-22T19:48:59.795Z,7.90
2022-12-22T19:51:26.611Z,7.80
2022-12-22T19:53:54.253Z,7.80
2022-12-22T19:56:27.193Z,7.80
2022-12-22T19:58:55.248Z,7.80
2022-12-22T20:01:22.225Z,7.70
2022-12-22T20:03:49.130Z,7.60
2022-12-22T20:06:17.511Z,7.70
2022-12-22T20:08:44.892Z,7.60
2022-12-22T20:11:16.459Z,7.60
2022-12-22T20:13:43.826Z,7.50
2022-12-22T20:16:13.223Z,7.50
2022-12-22T20:18:40.546Z,7.40
2022-12-22T20:21:25.416Z,7.30
2022-12-22T20:23:53.797Z,7.30
2022-12-22T20:26:23.267Z,7.30
2022-12-22T20:28:50.630Z,7.30
2022-12-22T20:31:19.501Z,7.20
2022-12-22T20:33:46.653Z,7.20
2022-12-22T20:36:29.459Z,7.10
2022-12-22T20:38:58.360Z,7.00
2022-12-22T20:41:25.795Z,7.00
2022-12-22T20:43:53.495Z,6.90
2022-12-22T20:46:24.589Z,6.90
2022-12-22T20:48:53.765Z,6.80
2022-12-22T20:51:22.194Z,6.80
2022-12-22T20:53:49.389Z,6.80
2022-12-22T20:56:33.682Z,6.80
2022-12-22T20:59:11.620Z,6.70
2022-12-22T21:01:38.603Z,6.60
2022-12-22T21:04:05.580Z,6.60
2022-12-22T21:06:36.541Z,6.60
2022-12-22T21:09:04.730Z,6.60
2022-12-22T21:11:32.077Z,6.70
2022-12-22T21:13:59.375Z,6.80
2022-12-22T21:16:29.923Z,6.80
2022-12-22T21:18:56.811Z,6.80
2022-12-22T21:21:23.621Z,6.80
2022-12-22T21:23:50.416Z,6.80
2022-12-22T21:26:34.073Z,6.80
2022-12-22T21:29:06.099Z,6.70
2022-12-22T21:31:33.290Z,6.80
2022-12-22T21:34:00.137Z,6.80
2022-12-22T21:36:31.122Z,6.80
2022-12-22T21:39:00.776Z,6.80
2022-12-22T21:41:46.379Z,6.80
2022-12-22T21:44:13.323Z,6.80
2022-12-22T21:46:43.683Z,6.80
2022-12-22T21:49:22.000Z,6.70
2022-12-22T21:51:50.161Z,6.70
2022-12-22T21:54:18.271Z,6.60
2022-12-22T21:56:45.844Z,6.70
2022-12-22T21:59:13.370Z,6.80
2022-12-22T22:01:41.526Z,6.80
2022-12-22T22:04:09.145Z,6.80
2022-12-22T22:06:35.874Z,6.80
2022-12-22T22:09:05.095Z,6.80
2022-12-22T22:11:32.079Z,6.80
2022-12-22T22:13:59.071Z,6.80
2022-12-22T22:16:25.921Z,6.80
2022-12-22T22:18:52.774Z,6.80
2022-12-22T22:21:19.471Z,6.80
2022-12-22T22:23:46.186Z,6.80
2022-12-22T22:26:13.052Z,6.90
2022-12-22T22:28:39.822Z,6.90
2022-12-22T22:31:11.525Z,6.90
2022-12-22T22:33:38.531Z,7.00
2022-12-22T22:36:08.861Z,7.00
2022-12-22T22:38:36.306Z,7.10
2022-12-22T22:41:03.230Z,7.10
2022-12-22T22:43:30.042Z,7.20
2022-12-22T22:45:56.821Z,7.20
2022-12-22T22:48:24.245Z,7.10
2022-12-22T22:50:51.374Z,7.20
2022-12-22T22:53:18.122Z,7.10
2022-12-22T22:55:44.875Z,7.10
2022-12-22T22:58:11.756Z,7.10
2022-12-22T23:00:39.277Z,7.10
2022-12-22T23:03:06.375Z,7.10
2022-12-22T23:05:33.492Z,7.00
2022-12-22T23:08:00.336Z,7.10
2022-12-22T23:10:27.375Z,7.00
2022-12-22T23:12:54.920Z,7.00
2022-12-22T23:15:21.619Z,7.00
2022-12-22T23:17:50.314Z,7.00
2022-12-22T23:20:17.084Z,6.90
2022-12-22T23:22:43.813Z,7.00
2022-12-22T23:25:10.656Z,7.00
2022-12-22T23:27:37.379Z,7.00
2022-12-22T23:30:04.679Z,7.00
2022-12-22T23:32:31.528Z,7.00
2022-12-22T23:34:58.258Z,6.90
2022-12-22T23:37:25.093Z,7.00
2022-12-22T23:39:51.842Z,6.90
2022-12-22T23:42:18.575Z,7.00
2022-12-22T23:44:45.275Z,6.90
2022-12-22T23:47:12.097Z,6.90
2022-12-22T23:49:38.886Z,6.90
2022-12-22T23:52:05.585Z,6.90
2022-12-22T23:54:32.341Z,6.90
2022-12-22T23:56:59.096Z,6.90
2022-12-22T23:59:25.803Z,6.90
